createdAt,value
2022-11-17T00:00:36.499Z,72.78
2022-11-17T00:04:35.550Z,72.73
2022-11-17T00:08:34.518Z,72.41
2022-11-17T00:13:06.109Z,72.17
2022-11-17T00:17:12.634Z,72.46
2022-11-17T00:21:19.516Z,73.11
2022-11-17T00:25:34.107Z,72.36
2022-11-17T00:29:10.095Z,72.05
2022-11-17T00:33:27.285Z,72.16
2022-11-17T00:37:27.822Z,72.13
2022-11-17T00:41:26.895Z,71.89
2022-11-17T00:45:26.135Z,72.64
2022-11-17T00:49:27.902Z,72.96
2022-11-17T00:53:26.523Z,73.16
2022-11-17T00:57:25.416Z,72.35
2022-11-17T01:01:24.210Z,72.61
2022-11-17T01:05:23.638Z,72.31
2022-11-17T01:09:24.069Z,72.94
2022-11-17T01:13:22.900Z,72.49
2022-11-17T01:17:21.885Z,72.87
2022-11-17T01:21:23.617Z,72.56
2022-11-17T01:25:22.791Z,72.64
2022-11-17T01:29:21.523Z,71.96
2022-11-17T01:33:20.812Z,71.63
2022-11-17T01:37:19.418Z,72.05
2022-11-17T01:41:19.175Z,72.38
2022-11-17T01:45:18.158Z,72.27
2022-11-17T01:49:21.709Z,72.07
2022-11-17T01:53:22.461Z,71.70
2022-11-17T01:57:24.781Z,72.38
2022-11-17T02:01:23.558Z,72.30
2022-11-17T02:05:22.330Z,72.91
2022-11-17T02:09:21.328Z,72.60
2022-11-17T02:13:22.009Z,72.87
2022-11-17T02:17:21.807Z,72.34
2022-11-17T02:21:45.047Z,71.46
2022-11-17T02:26:02.469Z,71.38
2022-11-17T02:30:01.549Z,71.70
2022-11-17T02:34:13.089Z,72.18
2022-11-17T02:38:24.490Z,72.50
2022-11-17T02:42:43.195Z,72.37
2022-11-17T02:47:01.320Z,72.60
2022-11-17T02:51:00.451Z,72.45
2022-11-17T02:55:00.525Z,72.32
2022-11-17T02:59:02.612Z,72.65
2022-11-17T03:03:21.649Z,72.92
2022-11-17T03:07:28.163Z,71.65
2022-11-17T03:11:33.065Z,72.38
2022-11-17T03:15:35.288Z,72.62
2022-11-17T03:19:50.959Z,71.96
2022-11-17T03:23:51.247Z,71.27
2022-11-17T03:27:53.777Z,72.06
2022-11-17T03:31:56.794Z,72.01
2022-11-17T03:36:01.447Z,72.01
2022-11-17T03:40:04.809Z,72.65
2022-11-17T03:44:05.213Z,72.89
2022-11-17T03:48:23.806Z,72.60
2022-11-17T03:52:25.425Z,71.50
2022-11-17T03:56:42.887Z,72.00
2022-11-17T04:00:42.164Z,72.55
2022-11-17T04:04:59.131Z,72.88
2022-11-17T04:09:00.172Z,73.03
2022-11-17T04:12:54.389Z,73.03
2022-11-17T04:16:53.446Z,73.33
2022-11-17T04:20:53.488Z,73.80
2022-11-17T04:25:06.446Z,73.90
2022-11-17T04:29:05.352Z,73.60
2022-11-17T04:33:04.252Z,73.86
2022-11-17T04:37:08.103Z,73.36
2022-11-17T04:41:27.009Z,73.43
2022-11-17T04:45:25.948Z,74.03
2022-11-17T04:49:25.449Z,73.52
2022-11-17T04:53:24.688Z,72.99
2022-11-17T04:57:23.585Z,73.20
2022-11-17T05:01:23.525Z,73.19
2022-11-17T05:05:23.003Z,72.82
2022-11-17T05:09:21.968Z,72.13
2022-11-17T05:13:25.788Z,72.50
2022-11-17T05:17:38.358Z,72.35
2022-11-17T05:21:37.153Z,73.26
2022-11-17T05:25:35.971Z,73.27
2022-11-17T05:29:35.083Z,73.30
2022-11-17T05:33:37.718Z,73.38
2022-11-17T05:37:37.012Z,74.24
2022-11-17T05:41:37.335Z,73.64
2022-11-17T05:45:36.889Z,72.84
2022-11-17T05:49:36.072Z,73.05
2022-11-17T05:53:35.045Z,73.22
2022-11-17T05:57:34.691Z,74.00
2022-11-17T06:01:34.481Z,72.98
2022-11-17T06:05:33.871Z,72.00
2022-11-17T06:09:33.929Z,72.30
2022-11-17T06:13:33.074Z,72.69
2022-11-17T06:17:37.612Z,71.75
2022-11-17T06:22:04.463Z,71.30
2022-11-17T06:25:56.051Z,71.71
2022-11-17T06:29:56.046Z,72.08
2022-11-17T06:33:55.014Z,72.65
2022-11-17T06:37:56.385Z,71.61
2022-11-17T06:41:50.612Z,71.60
2022-11-17T06:45:10.119Z,72.81
2022-11-17T06:49:09.656Z,73.57
2022-11-17T06:53:09.695Z,72.65
2022-11-17T06:57:08.653Z,71.42
2022-11-17T07:01:09.087Z,71.12
2022-11-17T07:05:08.531Z,71.08
2022-11-17T07:09:07.089Z,71.53
2022-11-17T07:13:06.066Z,71.48
2022-11-17T07:17:05.007Z,71.47
2022-11-17T07:21:07.584Z,71.07
2022-11-17T07:25:06.492Z,71.28
2022-11-17T07:29:05.848Z,71.34
2022-11-17T07:33:04.549Z,70.90
2022-11-17T07:37:03.549Z,70.98
2022-11-17T07:41:03.736Z,71.05
2022-11-17T07:45:03.008Z,70.76
2022-11-17T07:49:02.267Z,70.61
2022-11-17T07:53:15.542Z,70.94
2022-11-17T07:57:14.769Z,70.79
2022-11-17T08:01:17.438Z,70.78
2022-11-17T08:05:19.948Z,70.56
2022-11-17T08:09:19.008Z,70.84
2022-11-17T08:13:17.969Z,70.75
2022-11-17T08:17:17.985Z,70.73
2022-11-17T08:21:17.070Z,69.73
2022-11-17T08:25:15.750Z,68.96
2022-11-17T08:29:14.664Z,69.30
2022-11-17T08:33:14.207Z,69.08
2022-11-17T08:37:13.132Z,69.29
2022-11-17T08:41:11.780Z,68.94
2022-11-17T08:45:11.026Z,68.16
2022-11-17T08:49:09.999Z,67.97
2022-11-17T08:53:16.554Z,68.09
2022-11-17T08:57:15.592Z,67.74
2022-11-17T09:01:18.650Z,67.43
2022-11-17T09:05:17.738Z,67.33
2022-11-17T09:09:16.280Z,66.62
2022-11-17T09:13:18.705Z,67.25
2022-11-17T09:17:18.337Z,67.82
2022-11-17T09:21:17.621Z,66.84
2022-11-17T09:25:17.079Z,67.20
2022-11-17T09:29:16.255Z,67.59
2022-11-17T09:33:16.053Z,67.15
2022-11-17T09:37:14.667Z,67.29
2022-11-17T09:41:16.240Z,67.46
2022-11-17T09:45:23.251Z,67.50
2022-11-17T09:49:25.484Z,67.12
2022-11-17T09:53:43.890Z,67.02
2022-11-17T09:57:45.791Z,67.23
2022-11-17T10:01:44.654Z,67.21
2022-11-17T10:05:43.913Z,65.41
2022-11-17T10:09:44.107Z,64.93
2022-11-17T10:13:42.639Z,65.20
2022-11-17T10:17:42.811Z,65.44
2022-11-17T10:21:41.699Z,65.77
2022-11-17T10:25:42.206Z,66.71
2022-11-17T10:29:40.908Z,66.51
2022-11-17T10:33:43.935Z,65.60
2022-11-17T10:38:01.608Z,65.79
2022-11-17T10:42:01.864Z,65.43
2022-11-17T10:46:04.114Z,64.69
2022-11-17T10:50:12.971Z,65.34
2022-11-17T10:54:14.903Z,65.44
2022-11-17T10:58:24.492Z,65.90
2022-11-17T11:02:29.992Z,66.13
2022-11-17T11:07:05.850Z,66.45
2022-11-17T11:11:08.371Z,66.89
2022-11-17T11:15:14.227Z,67.30
2022-11-17T11:19:15.212Z,66.11
2022-11-17T11:23:20.868Z,66.51
2022-11-17T11:27:19.992Z,66.34
2022-11-17T11:31:37.571Z,66.35
2022-11-17T11:35:45.669Z,66.58
2022-11-17T11:40:03.431Z,67.06
2022-11-17T11:44:02.428Z,67.24
2022-11-17T11:48:01.396Z,67.44
2022-11-17T11:52:00.261Z,67.42
2022-11-17T11:56:09.875Z,67.28
2022-11-17T12:00:15.446Z,67.41
2022-11-17T12:03:49.929Z,67.41
2022-11-17T12:07:51.828Z,67.98
2022-11-17T12:12:04.068Z,69.12
2022-11-17T12:16:26.292Z,68.41
2022-11-17T12:20:31.267Z,68.57
2022-11-17T12:24:40.604Z,68.46
2022-11-17T12:28:26.660Z,68.73
2022-11-17T12:32:44.395Z,68.89
2022-11-17T12:37:27.453Z,68.94
2022-11-17T12:40:51.639Z,69.15
2022-11-17T12:44:22.384Z,68.06
2022-11-17T12:48:37.304Z,68.72
2022-11-17T12:52:56.122Z,69.20
2022-11-17T12:57:05.788Z,69.19
2022-11-17T13:01:04.604Z,69.33
2022-11-17T13:05:18.558Z,69.33
2022-11-17T13:09:23.729Z,69.67
2022-11-17T13:13:24.129Z,70.15
2022-11-17T13:17:26.623Z,69.76
2022-11-17T13:21:25.773Z,69.88
2022-11-17T13:25:24.632Z,69.82
2022-11-17T13:29:24.548Z,69.68
2022-11-17T13:33:24.857Z,70.58
2022-11-17T13:37:25.216Z,70.44
2022-11-17T13:41:25.893Z,71.22
2022-11-17T13:45:25.088Z,71.13
2022-11-17T13:49:42.995Z,71.31
2022-11-17T13:53:44.019Z,71.52
2022-11-17T13:57:54.037Z,71.76
2022-11-17T14:02:12.284Z,71.91
2022-11-17T14:06:12.734Z,71.30
2022-11-17T14:10:13.677Z,71.62
2022-11-17T14:14:13.859Z,72.32
2022-11-17T14:18:19.494Z,72.03
2022-11-17T14:22:30.521Z,71.60
2022-11-17T14:26:31.018Z,72.02
2022-11-17T14:30:30.352Z,72.68
2022-11-17T14:34:29.805Z,72.67
2022-11-17T14:38:29.373Z,72.93
2022-11-17T14:42:47.667Z,73.32
2022-11-17T14:46:06.649Z,73.19
2022-11-17T14:50:07.396Z,73.42
2022-11-17T14:54:06.051Z,73.64
2022-11-17T14:58:05.798Z,73.47
2022-11-17T15:02:05.409Z,73.47
2022-11-17T15:06:18.233Z,73.29
2022-11-17T15:10:19.088Z,73.11
2022-11-17T15:14:18.959Z,73.12
2022-11-17T15:18:37.963Z,73.07
2022-11-17T15:21:56.256Z,72.88
2022-11-17T15:25:55.568Z,72.84
2022-11-17T15:29:56.409Z,72.73
2022-11-17T15:33:55.509Z,72.44
2022-11-17T15:37:54.291Z,72.63
2022-11-17T15:41:53.485Z,72.02
2022-11-17T15:45:52.283Z,72.71
2022-11-17T15:49:58.745Z,73.83
2022-11-17T15:53:59.259Z,74.29
2022-11-17T15:57:58.113Z,74.30
2022-11-17T16:01:57.373Z,74.31
2022-11-17T16:05:56.656Z,74.37
2022-11-17T16:09:55.799Z,74.34
2022-11-17T16:13:55.602Z,74.59
2022-11-17T16:17:55.088Z,74.82
2022-11-17T16:21:54.321Z,74.28
2022-11-17T16:25:53.988Z,74.03
2022-11-17T16:29:53.567Z,73.84
2022-11-17T16:34:08.344Z,74.26
2022-11-17T16:38:15.176Z,73.56
2022-11-17T16:42:14.070Z,73.49
2022-11-17T16:46:23.336Z,73.57
2022-11-17T16:50:22.056Z,73.49
2022-11-17T16:54:21.161Z,73.36
2022-11-17T16:58:20.136Z,73.43
2022-11-17T17:02:19.348Z,73.77
2022-11-17T17:06:19.164Z,73.99
2022-11-17T17:10:18.219Z,73.49
2022-11-17T17:14:35.947Z,72.79
2022-11-17T17:17:54.878Z,72.47
2022-11-17T17:21:54.120Z,72.76
2022-11-17T17:26:06.729Z,72.84
2022-11-17T17:30:06.857Z,73.09
2022-11-17T17:34:06.729Z,72.79
2022-11-17T17:38:05.761Z,72.50
2022-11-17T17:42:05.138Z,72.88
2022-11-17T17:46:05.449Z,72.99
2022-11-17T17:50:04.598Z,73.03
2022-11-17T17:54:03.588Z,72.97
2022-11-17T17:58:03.354Z,72.73
2022-11-17T18:02:02.882Z,72.20
2022-11-17T18:06:02.734Z,72.28
2022-11-17T18:10:02.291Z,72.33
2022-11-17T18:14:01.735Z,72.33
2022-11-17T18:18:00.658Z,72.01
2022-11-17T18:21:59.550Z,71.73
2022-11-17T18:25:59.073Z,71.20
2022-11-17T18:30:12.349Z,70.86
2022-11-17T18:34:17.052Z,70.80
2022-11-17T18:38:16.441Z,71.21
2022-11-17T18:42:15.249Z,71.42
2022-11-17T18:46:15.768Z,70.67
2022-11-17T18:50:15.179Z,69.84
2022-11-17T18:54:27.816Z,70.02
2022-11-17T18:58:26.634Z,70.86
2022-11-17T19:02:25.609Z,71.24
2022-11-17T19:06:25.485Z,71.15
2022-11-17T19:10:24.917Z,70.98
2022-11-17T19:14:24.528Z,70.84
2022-11-17T19:18:23.790Z,70.47
2022-11-17T19:22:23.548Z,69.76
2022-11-17T19:26:23.922Z,69.68
2022-11-17T19:30:23.349Z,69.89
2022-11-17T19:34:22.396Z,69.88
2022-11-17T19:38:21.585Z,71.22
2022-11-17T19:42:20.586Z,71.65
2022-11-17T19:46:19.815Z,71.37
2022-11-17T19:50:20.073Z,70.94
2022-11-17T19:53:57.263Z,70.93
2022-11-17T19:57:58.629Z,70.82
2022-11-17T20:01:34.633Z,70.49
2022-11-17T20:05:34.012Z,70.35
2022-11-17T20:09:32.773Z,70.87
2022-11-17T20:13:32.116Z,71.37
2022-11-17T20:17:35.003Z,70.80
2022-11-17T20:21:09.452Z,70.33
2022-11-17T20:25:09.557Z,69.85
2022-11-17T20:29:08.921Z,69.97
2022-11-17T20:33:08.249Z,69.03
2022-11-17T20:37:07.480Z,68.18
2022-11-17T20:41:06.650Z,67.75
2022-11-17T20:45:05.859Z,67.92
2022-11-17T20:49:05.254Z,67.82
2022-11-17T20:53:03.623Z,68.23
2022-11-17T20:57:02.331Z,68.85
2022-11-17T21:01:27.539Z,69.39
2022-11-17T21:05:26.443Z,69.11
2022-11-17T21:09:25.259Z,69.53
2022-11-17T21:13:24.607Z,69.86
2022-11-17T21:17:43.080Z,69.25
2022-11-17T21:21:42.535Z,69.54
2022-11-17T21:25:41.194Z,69.31
2022-11-17T21:29:39.896Z,69.95
2022-11-17T21:33:39.833Z,70.16
2022-11-17T21:37:41.065Z,70.12
2022-11-17T21:41:26.910Z,69.89
2022-11-17T21:45:26.233Z,69.93
2022-11-17T21:49:25.193Z,68.55
2022-11-17T21:53:24.332Z,68.47
2022-11-17T21:57:23.113Z,69.02
2022-11-17T22:01:22.569Z,69.03
2022-11-17T22:05:24.414Z,69.58
2022-11-17T22:09:23.715Z,69.99
2022-11-17T22:13:22.660Z,70.08
2022-11-17T22:17:21.778Z,71.72
2022-11-17T22:21:20.253Z,71.13
2022-11-17T22:25:43.689Z,71.18
2022-11-17T22:29:38.691Z,71.42
2022-11-17T22:33:40.313Z,71.33
2022-11-17T22:37:38.892Z,72.44
2022-11-17T22:41:37.898Z,72.16
2022-11-17T22:45:38.093Z,72.34
2022-11-17T22:49:37.179Z,73.42
2022-11-17T22:53:36.438Z,73.98
2022-11-17T22:57:35.953Z,74.55
2022-11-17T23:01:35.035Z,74.75
2022-11-17T23:05:34.257Z,75.12
2022-11-17T23:09:33.095Z,74.79
2022-11-17T23:13:33.372Z,74.89
2022-11-17T23:17:32.273Z,75.04
2022-11-17T23:21:30.992Z,75.55
2022-11-17T23:25:29.900Z,75.37
2022-11-17T23:29:31.034Z,75.17
2022-11-17T23:33:06.651Z,74.08
2022-11-17T23:37:05.568Z,72.60
2022-11-17T23:41:06.206Z,72.31
2022-11-17T23:45:05.478Z,72.94
2022-11-17T23:49:04.837Z,73.07
2022-11-17T23:53:03.719Z,73.71
2022-11-17T23:57:02.716Z,73.22
